National Weather Service Raw Text Product

Displaying AFOS PIL: TAFOTM Received: 2017-12-07 23:30 UTC


965 
FTUS43 KDMX 072330
TAFOTM
TAF
KOTM 072330Z 0800/0824 25008KT P6SM FEW250
     FM080600 23008KT P6SM FEW250
     FM081100 26009KT P6SM OVC100=